Shaker Heights, Ohio
Current Conditions -  °F | °C
As of 8:53 PM on Sunday 21 Dec 2014 (Local Time) from KBKL Reporting Station
Overcast Overcast  
Wind Chill: 25°   Ceiling: 2500
Heat Index: 32°   Visibility: 10mi
Dew Point: 21°   Wind: 8mph
Humidity: 64%   Direction: 110°ESE
Pressure: 30.23"   Gusts: NA
Location:  41.47°N, 81.56°W
Report Text: KBKL 220153Z 11007KT 10SM OVC025 00/M06 A3023 RMK AO2 SLP244 T00001061
Loading
Personal Weather Stations






























Interactive Weather Map New forecast layout! Learn more

10-Day Weather Forecast

Advertisements
Track Severe Weather on mobile